Time;durP1;ratioP1;P1;durP2;ratioP2;P2;SDS_P1;SDS_P2;PMS_P1;PMS_P2;Temp;Humidity;BMP_temperature;BMP_pressure;BME280_temperature;BME280_humidity;BME280_pressure;Samples;Min_cycle;Max_cycle;Signal;HPM_P1;HPM_P2
2022/05/23 00:00:17;;;;;;;1.60;0.70;;;21.30;55.70;;;;;;4444709;32;20180;-72
2022/05/23 00:02:44;;;;;;;2.05;1.00;;;21.30;55.70;;;;;;4446149;32;20455;-72
2022/05/23 00:05:10;;;;;;;2.15;0.80;;;21.30;55.70;;;;;;4446263;32;20082;-72
2022/05/23 00:07:40;;;;;;;1.27;0.70;;;21.20;55.70;;;;;;4445945;32;20085;-72
2022/05/23 00:10:08;;;;;;;3.88;1.00;;;21.20;55.70;;;;;;4445840;32;20082;-71
2022/05/23 00:12:36;;;;;;;3.03;0.95;;;21.20;55.70;;;;;;4444703;32;20733;-72
2022/05/23 00:15:03;;;;;;;1.88;0.90;;;21.20;55.80;;;;;;4445588;32;20089;-72
2022/05/23 00:17:29;;;;;;;1.27;0.77;;;21.20;55.70;;;;;;4447036;32;20159;-72
2022/05/23 00:19:55;;;;;;;1.67;0.80;;;21.20;55.70;;;;;;4447349;32;20090;-72
2022/05/23 00:22:21;;;;;;;1.65;0.75;;;21.20;55.70;;;;;;4447340;32;20073;-72
2022/05/23 00:24:47;;;;;;;1.73;0.80;;;21.20;55.70;;;;;;4447285;32;20200;-71
2022/05/23 00:27:18;;;;;;;1.88;0.90;;;21.20;55.70;;;;;;4446357;32;20070;-72
2022/05/23 00:29:44;;;;;;;0.85;0.50;;;21.20;55.70;;;;;;4445689;32;20436;-72
2022/05/23 00:37:39;;;;;;;1.15;0.70;;;21.20;55.70;;;;;;4445863;32;20487;-72
2022/05/23 00:40:06;;;;;;;1.70;0.80;;;21.20;55.70;;;;;;4444513;32;20184;-72
2022/05/23 00:45:19;;;;;;;1.58;0.70;;;21.10;55.70;;;;;;4445662;32;20089;-72
2022/05/23 00:47:46;;;;;;;1.48;0.77;;;21.10;55.70;;;;;;4444964;32;20212;-72
2022/05/23 00:50:17;;;;;;;1.70;0.90;;;21.10;55.70;;;;;;4445682;32;20500;-72
2022/05/23 00:52:50;;;;;;;1.25;0.50;;;21.10;55.70;;;;;;4445067;32;20096;-72
2022/05/23 00:55:25;;;;;;;2.37;0.90;;;21.10;55.70;;;;;;4445393;32;20078;-72
2022/05/23 00:58:01;;;;;;;2.15;0.95;;;21.10;55.70;;;;;;4445392;32;20093;-72
2022/05/23 01:00:28;;;;;;;1.08;0.68;;;21.10;55.70;;;;;;4445542;32;20175;-72
2022/05/23 01:03:00;;;;;;;2.13;0.88;;;21.10;55.70;;;;;;4445284;32;20117;-72
2022/05/23 01:05:26;;;;;;;1.58;0.90;;;21.10;55.70;;;;;;4445349;32;20074;-72
2022/05/23 01:07:53;;;;;;;1.80;0.70;;;21.10;55.70;;;;;;4445484;32;20098;-72
2022/05/23 01:10:19;;;;;;;2.03;0.80;;;21.10;55.70;;;;;;4445029;32;20369;-72
2022/05/23 01:12:45;;;;;;;1.98;0.80;;;21.10;55.70;;;;;;4445272;32;20078;-72
2022/05/23 01:15:26;;;;;;;1.70;0.73;;;21.10;55.70;;;;;;4444801;32;20073;-72
2022/05/23 01:17:52;;;;;;;1.48;0.80;;;21.10;55.70;;;;;;4445538;32;20071;-72
2022/05/23 01:20:24;;;;;;;1.65;0.65;;;21.10;55.70;;;;;;4445189;32;20130;-72
2022/05/23 01:22:56;;;;;;;1.45;0.55;;;21.10;55.70;;;;;;4445055;32;20094;-71
2022/05/23 01:25:38;;;;;;;1.67;0.75;;;21.10;55.70;;;;;;4445189;32;20070;-72
2022/05/23 01:28:04;;;;;;;1.35;0.63;;;21.10;55.70;;;;;;4447596;32;20062;-71
2022/05/23 01:30:34;;;;;;;1.17;0.60;;;21.10;55.70;;;;;;4448229;32;20236;-72
2022/05/23 01:33:01;;;;;;;1.20;0.70;;;21.10;55.70;;;;;;4447693;32;20082;-71
2022/05/23 01:35:28;;;;;;;1.25;0.70;;;21.10;55.70;;;;;;4447943;32;20570;-71
2022/05/23 01:37:54;;;;;;;1.08;0.73;;;21.00;55.60;;;;;;4447915;32;20066;-71
2022/05/23 01:40:21;;;;;;;1.63;0.60;;;21.00;55.60;;;;;;4447852;32;20133;-71
2022/05/23 01:42:47;;;;;;;2.78;0.90;;;21.00;55.60;;;;;;4447575;32;20089;-72
2022/05/23 01:45:18;;;;;;;1.35;0.60;;;21.00;55.60;;;;;;4447535;32;20077;-71
2022/05/23 01:47:45;;;;;;;0.93;0.60;;;21.00;55.60;;;;;;4447934;32;20537;-71
2022/05/23 01:50:11;;;;;;;2.22;0.90;;;21.00;55.60;;;;;;4446720;32;20078;-71
2022/05/23 01:52:37;;;;;;;1.60;0.75;;;21.00;55.60;;;;;;4447582;32;20078;-73
2022/05/23 01:55:05;;;;;;;0.90;0.52;;;21.00;55.60;;;;;;4459245;32;20117;-73
2022/05/23 01:57:32;;;;;;;2.80;0.75;;;21.00;55.60;;;;;;4447923;32;20163;-73
2022/05/23 02:02:44;;;;;;;1.08;0.68;;;21.00;55.60;;;;;;4447608;32;20381;-73
2022/05/23 02:05:11;;;;;;;1.45;0.60;;;20.90;55.60;;;;;;4447581;32;20066;-72
2022/05/23 02:07:36;;;;;;;1.40;0.80;;;21.00;55.60;;;;;;4447456;32;20167;-72
2022/05/23 02:10:03;;;;;;;1.27;0.70;;;21.00;55.60;;;;;;4447484;32;20093;-72
2022/05/23 02:12:29;;;;;;;0.65;0.45;;;21.00;55.70;;;;;;4447400;32;20081;-72
2022/05/23 02:14:55;;;;;;;1.75;0.65;;;20.90;55.70;;;;;;4447057;32;20207;-72
2022/05/23 02:17:22;;;;;;;0.90;0.52;;;21.00;55.70;;;;;;4447154;32;20132;-72
2022/05/23 02:19:48;;;;;;;0.77;0.57;;;20.90;55.70;;;;;;4447253;32;20088;-73
2022/05/23 02:22:14;;;;;;;1.10;0.70;;;21.00;55.70;;;;;;4447730;32;20078;-73
2022/05/23 02:24:39;;;;;;;1.20;0.50;;;21.00;55.80;;;;;;4447488;32;20082;-73
2022/05/23 02:27:06;;;;;;;0.60;0.50;;;20.90;55.70;;;;;;4447412;32;20121;-73
2022/05/23 02:29:33;;;;;;;1.20;0.75;;;20.90;55.70;;;;;;4447392;32;20085;-73
2022/05/23 02:31:59;;;;;;;1.13;0.70;;;20.90;55.70;;;;;;4447028;32;20511;-73
2022/05/23 02:34:24;;;;;;;1.55;0.80;;;20.90;55.70;;;;;;4446247;32;20101;-73
2022/05/23 02:36:51;;;;;;;1.38;0.77;;;20.90;55.70;;;;;;4447135;32;20395;-73
2022/05/23 02:39:17;;;;;;;1.20;0.57;;;20.90;55.70;;;;;;4447093;32;20084;-73
2022/05/23 02:41:43;;;;;;;1.27;0.60;;;20.90;55.70;;;;;;4447448;32;20085;-72
2022/05/23 02:44:09;;;;;;;1.02;0.60;;;20.90;55.70;;;;;;4447103;32;20086;-73
2022/05/23 02:46:36;;;;;;;1.63;0.70;;;20.90;55.80;;;;;;4447076;32;20235;-73
2022/05/23 02:49:02;;;;;;;1.45;0.60;;;20.90;55.80;;;;;;4446946;32;20051;-72
2022/05/23 02:51:28;;;;;;;1.67;0.60;;;20.90;55.80;;;;;;4446983;32;20423;-73
2022/05/23 02:53:54;;;;;;;1.63;0.47;;;20.90;55.80;;;;;;4447082;32;20264;-73
2022/05/23 02:56:21;;;;;;;1.00;0.60;;;20.90;55.80;;;;;;4447059;32;20129;-72
2022/05/23 02:58:47;;;;;;;0.85;0.60;;;20.90;55.80;;;;;;4446962;32;20291;-73
2022/05/23 03:01:13;;;;;;;1.23;0.70;;;20.90;55.80;;;;;;4446707;32;20085;-72
2022/05/23 03:03:39;;;;;;;1.77;0.50;;;20.80;55.80;;;;;;4446626;32;20093;-72
2022/05/23 03:06:05;;;;;;;0.80;0.50;;;20.90;55.80;;;;;;4446935;32;20569;-73
2022/05/23 03:08:31;;;;;;;0.73;0.47;;;20.80;55.80;;;;;;4447073;32;20078;-73
2022/05/23 03:11:00;;;;;;;0.93;0.50;;;20.80;55.80;;;;;;4446794;32;20097;-73
2022/05/23 03:13:27;;;;;;;0.88;0.60;;;20.80;55.80;;;;;;4446684;32;20097;-73
2022/05/23 03:15:53;;;;;;;1.02;0.65;;;20.80;55.80;;;;;;4446619;32;20243;-73
2022/05/23 03:18:19;;;;;;;1.25;0.60;;;20.80;55.80;;;;;;4446397;32;20070;-73
2022/05/23 03:20:45;;;;;;;1.27;0.60;;;20.80;55.80;;;;;;4446595;32;20098;-72
2022/05/23 03:28:42;;;;;;;1.10;0.50;;;20.80;55.80;;;;;;4446886;32;20086;-73
2022/05/23 03:31:08;;;;;;;0.98;0.70;;;20.80;55.80;;;;;;4446221;32;20407;-73
2022/05/23 03:33:34;;;;;;;0.70;0.57;;;20.80;55.80;;;;;;4458322;32;20120;-73
2022/05/23 03:36:00;;;;;;;0.70;0.50;;;20.80;55.80;;;;;;4446628;32;20066;-73
2022/05/23 03:38:27;;;;;;;1.48;0.70;;;20.70;55.70;;;;;;4446316;32;20070;-73
2022/05/23 03:40:53;;;;;;;0.70;0.50;;;20.80;55.80;;;;;;4446438;32;20228;-73
2022/05/23 03:43:19;;;;;;;0.57;0.40;;;20.70;55.80;;;;;;4446872;32;20066;-72
2022/05/23 03:45:45;;;;;;;0.82;0.60;;;20.70;55.80;;;;;;4446549;32;20232;-72
2022/05/23 03:48:11;;;;;;;0.55;0.40;;;20.80;55.80;;;;;;4445980;32;20502;-72
2022/05/23 03:50:38;;;;;;;1.10;0.38;;;20.80;55.80;;;;;;4446165;32;20077;-72
2022/05/23 03:53:05;;;;;;;1.10;0.50;;;20.70;55.80;;;;;;4446409;32;20172;-73
2022/05/23 03:55:31;;;;;;;0.80;0.52;;;20.80;55.90;;;;;;4446123;32;20236;-72
2022/05/23 03:57:58;;;;;;;0.82;0.35;;;20.70;55.80;;;;;;4446350;32;20074;-72
2022/05/23 04:00:24;;;;;;;0.60;0.47;;;20.70;55.80;;;;;;4446029;32;20050;-72
2022/05/23 04:02:50;;;;;;;1.10;0.50;;;20.70;55.80;;;;;;4446268;32;20085;-73
2022/05/23 04:05:17;;;;;;;0.90;0.50;;;20.80;55.90;;;;;;4445137;32;20070;-73
2022/05/23 04:07:44;;;;;;;0.55;0.47;;;20.70;56.70;;;;;;4445898;32;20078;-72
2022/05/23 04:10:14;;;;;;;0.75;0.47;;;20.70;55.90;;;;;;4445641;32;20082;-72
2022/05/23 04:12:41;;;;;;;1.35;0.60;;;20.70;55.90;;;;;;4446115;32;20090;-73
2022/05/23 04:15:07;;;;;;;1.08;0.65;;;20.70;55.90;;;;;;4445821;32;20086;-72
2022/05/23 04:17:33;;;;;;;0.80;0.47;;;20.70;55.90;;;;;;4445676;32;20074;-73
2022/05/23 04:19:59;;;;;;;1.10;0.47;;;20.70;55.90;;;;;;4445817;32;20086;-72
2022/05/23 04:22:25;;;;;;;1.35;0.60;;;20.70;55.90;;;;;;4446070;32;20455;-73
2022/05/23 04:24:51;;;;;;;0.70;0.50;;;20.70;55.90;;;;;;4445971;32;20370;-72
2022/05/23 04:27:17;;;;;;;1.30;0.52;;;20.70;55.90;;;;;;4445658;32;20074;-72
2022/05/23 04:29:43;;;;;;;0.68;0.40;;;20.70;55.90;;;;;;4444599;32;20184;-72
2022/05/23 04:35:28;;;;;;;1.17;0.57;;;20.70;55.90;;;;;;4446002;32;20535;-73
2022/05/23 04:37:49;;;;;;;0.80;0.45;;;20.70;55.90;;;;;;4444586;32;20260;-72
2022/05/23 04:40:21;;;;;;;0.65;0.40;;;20.70;55.90;;;;;;4445490;32;20121;-73
2022/05/23 04:42:47;;;;;;;0.50;0.32;;;20.70;55.90;;;;;;4445449;32;20097;-73
2022/05/23 04:45:14;;;;;;;0.77;0.45;;;20.60;55.80;;;;;;4445380;32;20086;-72
2022/05/23 04:50:26;;;;;;;1.05;0.50;;;20.60;55.90;;;;;;4444361;32;20507;-72
2022/05/23 04:52:53;;;;;;;0.98;0.60;;;20.60;55.90;;;;;;4445024;32;20090;-72
2022/05/23 04:55:19;;;;;;;0.70;0.35;;;20.60;55.90;;;;;;4445351;32;20163;-73
2022/05/23 04:57:46;;;;;;;1.27;0.52;;;20.60;55.90;;;;;;4445573;32;20563;-72
2022/05/23 05:00:18;;;;;;;1.23;0.40;;;20.60;55.90;;;;;;4445250;32;20435;-73
2022/05/23 05:02:45;;;;;;;0.52;0.40;;;20.60;55.90;;;;;;4445119;32;20081;-72
2022/05/23 05:05:12;;;;;;;1.00;0.55;;;20.60;55.80;;;;;;4445299;32;20089;-72
2022/05/23 05:07:37;;;;;;;1.02;0.50;;;20.60;55.90;;;;;;4445500;32;20133;-72
2022/05/23 05:10:05;;;;;;;0.50;0.32;;;20.60;55.90;;;;;;4444953;32;20192;-73
2022/05/23 05:12:31;;;;;;;2.47;0.73;;;20.60;55.90;;;;;;4445341;32;20090;-73
2022/05/23 05:14:58;;;;;;;0.90;0.50;;;20.60;55.90;;;;;;4445065;32;20066;-72
2022/05/23 05:17:24;;;;;;;0.52;0.40;;;20.60;55.90;;;;;;4444960;32;20084;-72
2022/05/23 05:19:50;;;;;;;0.95;0.40;;;20.60;55.90;;;;;;4444921;32;20086;-73
2022/05/23 05:22:16;;;;;;;0.60;0.35;;;20.60;55.80;;;;;;4445312;32;20050;-72
2022/05/23 05:24:42;;;;;;;0.60;0.40;;;20.60;55.80;;;;;;4444803;32;20074;-72
2022/05/23 05:27:10;;;;;;;1.45;0.68;;;20.60;55.80;;;;;;4445260;32;20391;-73
2022/05/23 05:29:36;;;;;;;1.42;0.50;;;20.60;55.80;;;;;;4445303;32;20090;-73
2022/05/23 05:32:14;;;;;;;0.90;0.40;;;20.70;55.90;;;;;;4444948;32;20541;-73
2022/05/23 05:34:53;;;;;;;2.40;0.40;;;20.70;56.80;;;;;;4445355;32;20092;-73
2022/05/23 05:37:25;;;;;;;0.65;0.40;;;20.70;55.80;;;;;;4444814;32;20074;-72
2022/05/23 05:39:54;;;;;;;1.25;0.45;;;20.70;55.90;;;;;;4444798;32;20211;-72
2022/05/23 05:42:26;;;;;;;1.02;0.57;;;20.70;55.80;;;;;;4444694;32;20160;-72
2022/05/23 05:44:58;;;;;;;1.23;0.30;;;20.70;55.80;;;;;;4444631;32;20089;-72
2022/05/23 05:47:24;;;;;;;0.82;0.38;;;20.70;55.80;;;;;;4444735;32;20155;-73
2022/05/23 05:49:53;;;;;;;0.73;0.45;;;20.70;55.80;;;;;;4444951;32;20148;-72
2022/05/23 05:52:23;;;;;;;0.65;0.43;;;20.70;55.70;;;;;;4444826;32;20506;-72
2022/05/23 05:54:50;;;;;;;0.82;0.50;;;20.70;55.80;;;;;;4443818;32;20082;-72
2022/05/23 05:57:17;;;;;;;0.52;0.35;;;20.70;55.70;;;;;;4443749;32;20094;-72
2022/05/23 05:59:42;;;;;;;0.60;0.40;;;20.70;55.70;;;;;;4444798;32;20163;-72
2022/05/23 06:02:09;;;;;;;0.40;0.30;;;20.80;55.80;;;;;;4444600;32;20077;-72
2022/05/23 06:04:35;;;;;;;0.77;0.40;;;20.80;55.80;;;;;;4444797;32;20129;-72
2022/05/23 06:12:32;;;;;;;0.75;0.50;;;20.80;55.70;;;;;;4445219;32;20157;-71
2022/05/23 06:14:58;;;;;;;0.65;0.40;;;20.70;55.60;;;;;;4447554;32;20070;-72
2022/05/23 06:17:24;;;;;;;0.50;0.30;;;20.80;55.60;;;;;;4447568;32;20070;-72
2022/05/23 06:19:50;;;;;;;0.85;0.40;;;20.80;55.60;;;;;;4447536;32;20073;-71
2022/05/23 06:22:17;;;;;;;0.77;0.47;;;20.80;55.60;;;;;;4459350;32;20113;-72
2022/05/23 06:24:44;;;;;;;0.45;0.40;;;20.80;55.60;;;;;;4447198;32;20093;-72
2022/05/23 06:27:11;;;;;;;0.95;0.43;;;20.80;55.60;;;;;;4446368;32;20143;-71
2022/05/23 06:29:38;;;;;;;0.98;0.38;;;20.80;55.50;;;;;;4446524;32;20160;-71
2022/05/23 06:32:05;;;;;;;0.93;0.40;;;20.80;55.50;;;;;;4447353;32;20082;-71
2022/05/23 06:34:31;;;;;;;0.95;0.50;;;20.80;55.50;;;;;;4447582;32;20100;-72
2022/05/23 06:36:57;;;;;;;0.55;0.32;;;20.80;55.50;;;;;;4458941;32;20121;-72
2022/05/23 06:39:25;;;;;;;1.67;0.50;;;20.90;55.60;;;;;;4458668;32;20093;-71
2022/05/23 06:41:52;;;;;;;0.80;0.50;;;20.90;55.60;;;;;;4447267;32;20066;-72
2022/05/23 06:44:17;;;;;;;0.60;0.40;;;20.90;55.60;;;;;;4447186;32;20444;-71
2022/05/23 06:46:44;;;;;;;1.85;0.50;;;20.90;55.60;;;;;;4447025;32;20085;-78
2022/05/23 06:49:10;;;;;;;0.60;0.40;;;21.00;55.60;;;;;;4446641;32;20089;-77
2022/05/23 06:51:36;;;;;;;0.90;0.30;;;21.00;55.60;;;;;;4446755;32;20082;-76
2022/05/23 06:54:02;;;;;;;1.30;0.50;;;21.10;55.60;;;;;;4447065;32;20509;-78
2022/05/23 06:56:30;;;;;;;1.15;0.50;;;21.10;55.50;;;;;;4446124;32;20136;-78
2022/05/23 06:58:56;;;;;;;1.45;0.47;;;21.20;55.40;;;;;;4446969;32;20066;-76
2022/05/23 07:01:22;;;;;;;2.70;0.75;;;21.20;55.40;;;;;;4447006;32;20415;-77
2022/05/23 07:03:49;;;;;;;2.35;0.95;;;21.30;55.30;;;;;;4446612;32;20098;-76
2022/05/23 07:14:28;;;;;;;3.42;0.70;;;21.40;55.50;;;;;;4446932;32;20247;-75
2022/05/23 07:16:54;;;;;;;1.45;0.80;;;21.40;55.40;;;;;;4445676;32;20180;-76
2022/05/23 07:19:21;;;;;;;4.25;1.27;;;21.40;55.40;;;;;;4446727;32;20078;-78
2022/05/23 07:21:46;;;;;;;2.47;1.08;;;21.50;55.40;;;;;;4445504;32;20535;-76
2022/05/23 07:24:12;;;;;;;3.97;1.13;;;21.50;55.30;;;;;;4445844;32;20088;-76
2022/05/23 07:26:38;;;;;;;3.55;1.10;;;21.50;55.30;;;;;;4446568;32;20160;-77
2022/05/23 07:29:05;;;;;;;2.50;1.13;;;21.50;55.30;;;;;;4458477;32;20162;-77
2022/05/23 07:31:31;;;;;;;2.78;1.02;;;21.60;55.30;;;;;;4446544;32;20089;-77
2022/05/23 07:33:57;;;;;;;2.67;1.17;;;21.60;55.30;;;;;;4446505;32;20079;-78
2022/05/23 07:36:22;;;;;;;3.65;1.27;;;21.60;55.30;;;;;;4446438;32;20081;-79
2022/05/23 07:38:48;;;;;;;4.15;1.33;;;21.60;55.20;;;;;;4446885;32;20136;-78
2022/05/23 07:41:15;;;;;;;4.40;1.20;;;21.70;55.30;;;;;;4446444;32;20088;-78
2022/05/23 07:43:41;;;;;;;3.05;1.15;;;21.70;55.20;;;;;;4445573;32;20097;-78
2022/05/23 07:46:12;;;;;;;5.13;1.30;;;21.70;55.20;;;;;;4446469;32;20220;-77
2022/05/23 07:48:43;;;;;;;5.15;1.25;;;21.70;55.10;;;;;;4446255;32;20204;-77
2022/05/23 07:51:11;;;;;;;3.70;1.30;;;21.80;55.10;;;;;;4446214;32;20600;-78
2022/05/23 08:01:51;;;;;;;4.82;1.65;;;21.90;54.90;;;;;;4446119;32;20066;-78
2022/05/23 08:04:18;;;;;;;5.63;1.23;;;22.00;54.90;;;;;;4457926;32;20101;-79
2022/05/23 08:06:44;;;;;;;3.67;1.23;;;22.00;54.80;;;;;;4445916;32;20062;-77
2022/05/23 08:09:10;;;;;;;4.18;1.50;;;22.00;54.80;;;;;;4445919;32;20066;-78
2022/05/23 08:11:38;;;;;;;5.55;1.58;;;22.00;54.70;;;;;;4445932;32;20077;-77
2022/05/23 08:14:05;;;;;;;4.75;1.75;;;22.10;54.70;;;;;;4445582;32;20081;-78
2022/05/23 08:16:31;;;;;;;3.17;1.25;;;22.10;54.70;;;;;;4444536;32;20546;-78
2022/05/23 08:18:58;;;;;;;3.90;1.40;;;22.10;54.70;;;;;;4445538;32;20070;-77
2022/05/23 08:21:25;;;;;;;4.82;1.45;;;22.10;54.70;;;;;;4446010;32;20164;-73
2022/05/23 08:23:51;;;;;;;4.43;1.83;;;22.10;54.80;;;;;;4445775;32;20093;-78
2022/05/23 08:26:17;;;;;;;3.55;1.60;;;22.10;54.80;;;;;;4445742;32;20078;-78
2022/05/23 08:28:43;;;;;;;4.85;1.60;;;22.10;54.80;;;;;;4445738;32;20280;-78
2022/05/23 08:31:08;;;;;;;5.00;1.77;;;22.20;54.80;;;;;;4445353;32;20058;-78
2022/05/23 08:33:38;;;;;;;3.85;1.60;;;22.20;54.70;;;;;;4445796;32;20084;-78
2022/05/23 08:36:04;;;;;;;7.18;1.90;;;22.20;54.60;;;;;;4445674;32;20071;-80
2022/05/23 08:38:30;;;;;;;3.60;1.65;;;22.20;54.60;;;;;;4446288;32;20074;-78
2022/05/23 08:41:08;;;;;;;3.58;1.95;;;22.30;54.70;;;;;;4445972;32;20171;-76
2022/05/23 08:43:51;;;;;;;4.50;1.75;;;22.30;54.70;;;;;;4446053;32;20213;-78
2022/05/23 08:46:45;;;;;;;4.32;1.75;;;22.30;54.60;;;;;;4445938;32;20074;-78
2022/05/23 08:49:48;;;;;;;3.85;1.92;;;22.30;54.60;;;;;;4456953;32;20066;-77
2022/05/23 08:52:38;;;;;;;8.57;1.80;;;22.30;54.70;;;;;;4445462;32;20085;-77
2022/05/23 08:55:17;;;;;;;5.53;1.80;;;22.30;54.80;;;;;;4446203;32;20066;-78
2022/05/23 08:58:08;;;;;;;19.92;2.30;;;22.40;54.90;;;;;;4445441;32;20189;-77
2022/05/23 09:00:43;;;;;;;4.65;2.00;;;22.40;54.90;;;;;;4457051;32;20227;-78
2022/05/23 09:03:27;;;;;;;4.97;1.80;;;22.40;54.90;;;;;;4445306;32;20175;-78
2022/05/23 09:06:00;;;;;;;3.90;1.90;;;22.40;55.00;;;;;;4445383;32;20094;-78
2022/05/23 09:08:32;;;;;;;6.70;1.80;;;22.40;55.90;;;;;;4445277;32;20290;-78
2022/05/23 09:11:06;;;;;;;4.20;1.90;;;22.50;55.00;;;;;;4444100;32;20384;-78
2022/05/23 09:13:38;;;;;;;3.38;1.95;;;22.50;55.10;;;;;;4444868;32;20088;-78
2022/05/23 09:16:06;;;;;;;5.38;2.05;;;22.50;55.10;;;;;;4457040;32;20078;-79
2022/05/23 09:19:06;;;;;;;5.07;2.20;;;22.60;55.10;;;;;;4445022;32;20160;-78
2022/05/23 09:24:17;;;;;;;4.03;2.38;;;22.50;55.10;;;;;;4445146;32;20070;-77
2022/05/23 09:26:45;;;;;;;5.07;1.83;;;22.50;55.10;;;;;;4445372;32;20074;-77
2022/05/23 09:29:11;;;;;;;6.55;2.67;;;22.50;55.20;;;;;;4445617;32;20129;-77
2022/05/23 09:31:45;;;;;;;6.55;2.70;;;22.50;55.20;;;;;;4445193;32;20287;-77
2022/05/23 09:34:32;;;;;;;4.40;2.22;;;22.50;55.40;;;;;;4445176;32;20066;-77
2022/05/23 09:36:59;;;;;;;4.43;2.10;;;22.50;55.30;;;;;;4445001;32;20082;-78
2022/05/23 09:39:26;;;;;;;6.28;2.38;;;22.50;55.40;;;;;;4456555;32;20114;-78
2022/05/23 09:47:46;;;;;;;5.38;2.75;;;22.50;55.50;;;;;;4445252;32;20112;-78
2022/05/23 09:50:27;;;;;;;8.15;2.60;;;22.50;55.50;;;;;;4459672;32;20089;-76
2022/05/23 09:52:56;;;;;;;7.82;2.33;;;22.50;55.40;;;;;;4448020;32;20074;-77
2022/05/23 09:55:31;;;;;;;7.30;2.58;;;22.50;55.60;;;;;;4447967;32;20062;-77
2022/05/23 09:58:08;;;;;;;4.70;2.60;;;22.50;55.70;;;;;;4448147;32;20098;-76
2022/05/23 10:00:37;;;;;;;4.10;2.10;;;22.50;55.70;;;;;;4448125;32;20415;-77
2022/05/23 10:03:13;;;;;;;5.10;2.70;;;22.50;55.70;;;;;;4447767;32;20175;-78
2022/05/23 10:05:42;;;;;;;6.05;2.50;;;22.50;55.70;;;;;;4448023;32;20412;-84
2022/05/23 10:08:29;;;;;;;5.75;2.35;;;22.50;55.70;;;;;;4447711;32;20086;-82
2022/05/23 10:11:06;;;;;;;6.28;2.47;;;22.50;55.80;;;;;;4447755;32;20503;-80
2022/05/23 10:13:36;;;;;;;5.90;1.90;;;22.50;55.80;;;;;;4447882;32;20610;-73
2022/05/23 10:16:29;;;;;;;6.07;2.40;;;22.50;55.80;;;;;;4447848;32;20086;-84
2022/05/23 10:19:06;;;;;;;5.65;2.13;;;22.50;55.80;;;;;;4447486;32;20080;-85
2022/05/23 10:21:38;;;;;;;5.72;2.08;;;22.50;55.90;;;;;;4447918;32;20171;-71
2022/05/23 10:24:18;;;;;;;6.93;2.58;;;22.50;56.00;;;;;;4447176;32;20081;-69
2022/05/23 10:26:46;;;;;;;3.80;2.65;;;22.60;56.10;;;;;;4447758;32;20140;-79
2022/05/23 10:29:32;;;;;;;4.70;2.35;;;22.60;56.10;;;;;;4447458;32;20124;-79
2022/05/23 10:32:07;;;;;;;6.88;2.35;;;22.60;56.20;;;;;;4447130;32;20151;-79
2022/05/23 10:34:43;;;;;;;4.53;2.10;;;22.60;56.10;;;;;;4459379;32;20063;-79
2022/05/23 10:37:21;;;;;;;6.07;2.28;;;22.60;56.00;;;;;;4447501;32;20089;-78
2022/05/23 10:42:43;;;;;;;5.45;2.03;;;22.60;55.90;;;;;;4447514;32;20085;-76
2022/05/23 10:45:32;;;;;;;6.40;2.35;;;22.60;56.00;;;;;;4447294;32;20073;-73
2022/05/23 10:48:17;;;;;;;6.60;2.28;;;22.60;55.80;;;;;;4447093;32;20143;-74
2022/05/23 10:51:07;;;;;;;4.07;2.13;;;22.60;55.90;;;;;;4447192;32;20507;-75
2022/05/23 10:53:45;;;;;;;7.25;2.17;;;22.60;56.20;;;;;;4447068;32;20058;-74
2022/05/23 10:56:42;;;;;;;5.85;2.50;;;22.60;56.10;;;;;;4458715;32;20206;-75
2022/05/23 10:59:17;;;;;;;7.10;2.38;;;22.60;56.20;;;;;;4446981;32;20100;-77
2022/05/23 11:01:57;;;;;;;4.03;2.05;;;22.60;56.20;;;;;;4447371;32;20089;-77
2022/05/23 11:04:41;;;;;;;6.28;2.47;;;22.60;56.20;;;;;;4447252;32;20256;-79
2022/05/23 11:07:28;;;;;;;4.55;2.30;;;22.60;56.20;;;;;;4447144;32;20078;-77
2022/05/23 11:10:14;;;;;;;4.82;2.25;;;22.60;56.20;;;;;;4447083;32;20093;-77
2022/05/23 11:13:10;;;;;;;7.57;2.60;;;22.60;56.10;;;;;;4446931;32;20066;-77
2022/05/23 11:16:03;;;;;;;4.75;2.17;;;22.70;56.10;;;;;;4446758;32;20554;-77
2022/05/23 11:18:47;;;;;;;5.45;2.40;;;22.70;56.10;;;;;;4446843;32;20419;-77
2022/05/23 11:21:22;;;;;;;6.72;2.67;;;22.70;56.00;;;;;;4446984;32;20074;-76
2022/05/23 11:23:54;;;;;;;5.40;2.17;;;22.70;56.00;;;;;;4446728;32;20164;-77
2022/05/23 11:26:44;;;;;;;4.38;2.20;;;22.70;55.70;;;;;;4446558;32;20082;-77
2022/05/23 11:35:10;;;;;;;6.28;2.45;;;22.70;55.60;;;;;;4446525;32;20303;-78
2022/05/23 11:37:43;;;;;;;6.47;2.20;;;22.70;55.70;;;;;;4446589;32;20160;-77
2022/05/23 11:40:23;;;;;;;5.55;2.13;;;22.70;55.50;;;;;;4446467;32;20184;-77
2022/05/23 11:42:49;;;;;;;6.53;2.15;;;22.80;55.50;;;;;;4446463;32;20074;-79
2022/05/23 11:48:37;;;;;;;7.45;2.35;;;22.80;54.80;;;;;;4446072;32;20212;-78
2022/05/23 11:51:21;;;;;;;;;;;22.80;54.90;;;;;;4446932;32;20078;-78
2022/05/23 11:54:11;;;;;;;3.72;2.03;;;22.70;54.80;;;;;;4446619;32;19982;-76
2022/05/23 11:57:00;;;;;;;7.85;2.78;;;22.70;54.90;;;;;;4458244;32;20106;-76
2022/05/23 11:59:26;;;;;;;7.07;2.10;;;22.70;54.50;;;;;;4445972;32;20117;-76
2022/05/23 12:02:11;;;;;;;9.05;2.58;;;22.70;54.70;;;;;;4446092;32;20192;-76
2022/05/23 12:04:49;;;;;;;6.85;2.78;;;22.70;54.50;;;;;;4446062;32;20128;-76
2022/05/23 12:07:37;;;;;;;4.47;2.10;;;22.80;54.60;;;;;;4446298;32;20093;-77
2022/05/23 12:10:22;;;;;;;6.00;1.98;;;22.80;54.50;;;;;;4445702;32;20114;-77
2022/05/23 12:12:54;;;;;;;7.70;2.05;;;22.80;54.40;;;;;;4446100;32;20066;-76
2022/05/23 12:15:46;;;;;;;4.40;2.10;;;22.80;54.30;;;;;;4445990;32;20515;-79
2022/05/23 12:18:24;;;;;;;7.45;2.03;;;22.80;54.20;;;;;;4457905;32;20078;-75
2022/05/23 12:20:58;;;;;;;3.83;1.90;;;22.80;54.30;;;;;;4445717;32;20082;-75
2022/05/23 12:23:36;;;;;;;7.13;2.13;;;22.80;54.10;;;;;;4446288;32;20093;-80
2022/05/23 12:26:11;;;;;;;6.40;1.90;;;22.80;53.70;;;;;;4445924;32;20089;-81
2022/05/23 12:29:22;;;;;;;4.72;1.67;;;22.90;54.60;;;;;;4445648;32;20110;-80
2022/05/23 12:32:16;;;;;;;4.00;1.48;;;22.90;53.30;;;;;;4445355;32;20534;-80
2022/05/23 12:34:46;;;;;;;4.88;1.70;;;22.90;53.40;;;;;;4445585;32;20492;-81
2022/05/23 12:37:33;;;;;;;3.90;1.90;;;22.90;53.20;;;;;;4445783;32;20167;-80
2022/05/23 12:40:08;;;;;;;3.65;1.65;;;22.90;53.10;;;;;;4444521;32;20223;-75
2022/05/23 12:42:46;;;;;;;3.40;1.75;;;22.90;53.10;;;;;;4457509;32;20077;-76
2022/05/23 12:45:28;;;;;;;3.28;1.50;;;22.90;52.90;;;;;;4445752;32;20070;-78
2022/05/23 12:48:40;;;;;;;4.90;1.70;;;22.90;52.80;;;;;;4457204;32;20088;-75
2022/05/23 12:51:28;;;;;;;4.32;1.75;;;22.90;53.00;;;;;;4444651;32;20102;-75
2022/05/23 12:54:26;;;;;;;6.93;1.55;;;22.90;52.90;;;;;;4445133;32;20066;-75
2022/05/23 12:57:05;;;;;;;4.90;1.75;;;22.90;53.10;;;;;;4445661;32;20092;-75
2022/05/23 12:59:41;;;;;;;4.13;1.65;;;22.90;53.20;;;;;;4445547;32;20086;-75
2022/05/23 13:02:40;;;;;;;2.55;1.30;;;22.90;53.20;;;;;;4445270;32;20074;-76
2022/05/23 13:05:14;;;;;;;3.88;1.67;;;22.80;53.10;;;;;;4445504;32;20207;-76
2022/05/23 13:07:47;;;;;;;4.07;1.92;;;22.80;53.20;;;;;;4445188;32;20074;-76
2022/05/23 13:10:19;;;;;;;;;;;22.80;53.20;;;;;;4446100;32;20078;-76
2022/05/23 13:13:29;;;;;;;4.30;1.70;;;22.80;53.20;;;;;;4445408;32;20495;-76
2022/05/23 13:15:56;;;;;;;4.00;1.52;;;22.80;53.30;;;;;;4436498;32;20172;-76
2022/05/23 13:23:54;;;;;;;5.35;1.98;;;22.80;53.50;;;;;;4444514;32;20225;-77
2022/05/23 13:26:21;;;;;;;2.90;1.58;;;22.80;53.50;;;;;;4445056;32;20632;-75
2022/05/23 13:28:52;;;;;;;4.10;1.55;;;22.80;53.30;;;;;;4445206;32;20168;-74
2022/05/23 13:31:33;;;;;;;4.88;1.80;;;22.80;53.30;;;;;;4445251;32;20082;-76
2022/05/23 13:33:59;;;;;;;4.55;1.70;;;22.80;53.50;;;;;;4445154;32;20156;-77
2022/05/23 13:36:42;;;;;;;5.25;1.63;;;22.80;53.60;;;;;;4444981;32;20066;-77
2022/05/23 13:39:14;;;;;;;5.25;1.50;;;22.80;53.60;;;;;;4445024;32;20098;-76
2022/05/23 13:41:41;;;;;;;3.55;1.80;;;22.80;54.80;;;;;;4444948;32;20385;-77
2022/05/23 13:44:07;;;;;;;2.95;1.40;;;22.80;53.70;;;;;;4445213;32;20122;-76
2022/05/23 13:46:42;;;;;;;7.70;2.10;;;22.80;53.70;;;;;;4445025;32;20220;-76
2022/05/23 13:49:28;;;;;;;2.88;1.70;;;22.70;53.70;;;;;;4444528;32;20082;-76
2022/05/23 13:52:01;;;;;;;4.57;2.28;;;22.70;53.80;;;;;;4444646;32;20074;-76
2022/05/23 13:54:47;;;;;;;4.88;1.83;;;22.70;53.90;;;;;;4444889;32;20078;-77
2022/05/23 13:57:30;;;;;;;3.72;1.33;;;22.70;54.00;;;;;;4444716;32;20070;-77
2022/05/23 14:00:06;;;;;;;3.45;1.80;;;22.60;54.00;;;;;;4444987;32;20122;-77
2022/05/23 14:02:41;;;;;;;4.60;2.10;;;22.60;54.10;;;;;;4444855;32;20140;-76
2022/05/23 14:05:08;;;;;;;5.40;1.88;;;22.60;54.30;;;;;;4444822;32;20459;-77
2022/05/23 14:07:38;;;;;;;6.00;1.70;;;22.60;54.40;;;;;;4444941;32;20086;-77
2022/05/23 14:10:07;;;;;;;7.57;1.92;;;22.60;54.60;;;;;;4445074;32;20077;-77
2022/05/23 14:12:35;;;;;;;3.88;1.77;;;22.60;54.70;;;;;;4444570;32;20224;-77
2022/05/23 14:15:10;;;;;;;5.82;1.90;;;22.60;54.80;;;;;;4444610;32;20223;-76
2022/05/23 14:17:43;;;;;;;5.03;1.60;;;22.60;54.90;;;;;;4444476;32;20070;-78
2022/05/23 14:20:20;;;;;;;5.78;2.38;;;22.60;55.00;;;;;;4443787;32;20078;-78